Roanoke, VA (24001)

1:46 PM EDT on August 29, 2015 (GMT -0400)
Addison MS | | Change Station
CLOSE
Current Station
Personal Weather Station
Location: Roanoke, VA
Elevation: 1007 ft
Nearby Weather Stations

Elev 1007 ft 37.28 °N, 79.95 °W | Updated 1 minute ago

Mostly Cloudy
Mostly Cloudy
85.4 °F
Feels Like 87 °F
N
3.0
Wind Variable Wind from North
Gusts 7.0 mph

Today
High -- | Low -- °F
--% Chance of Precip.
Yesterday
High -- | Low -- °F
Precip. -- in
6:47 AM 7:53 PM
Full, 100% visible
Pressure 30.21 in
Visibility 10.0 miles
Clouds Scattered Clouds 9500 ft
Scattered Clouds 15000 ft
Mostly Cloudy 25000 ft
Heat Index 87 °F
Dew Point 64 °F
Humidity 49%
Rainfall 0.00 in
Snow Depth Not available.
UV 11.1 out of 12
Pollen 8.70 out of 12
Air Quality Not available.
Flu Activity Not available.
METAR KROA 291654Z 00000KT 10SM SCT095 SCT150 BKN250 27/16 A3024 RMK AO2 SLP230 T02670161
Pressure 30.21 in
Visibility 10.0 miles
Clouds Scattered Clouds 9500 ft
Scattered Clouds 15000 ft
Mostly Cloudy 25000 ft
Heat Index 87 °F
Dew Point 64 °F
Humidity 49%
Rainfall 0.00 in
Snow Depth Not available.
UV 11.1 out of 12
Pollen 8.70 out of 12
Air Quality Not available.
Flu Activity Not available.
METAR KROA 291654Z 00000KT 10SM SCT095 SCT150 BKN250 27/16 A3024 RMK AO2 SLP230 T02670161

10-Day Weather Forecast

×

Almanac

Astronomy

Aug. 29, 2015 Rise Set
Actual Time
Civil Twilight
Nautical Twilight
Astronomical Twilight
Moon
Length of Visible Light
Length of Day
Tomorrow will be .
, % of the Moon is Illuminated

Today's Extremes

State Highs State Lows

Community

WunderPhotos

Upload Photos

1,850,743 photos uploaded!

WunderBlogs® & News

Nearby

Air Quality

  Air Quality AQ Index Pollutant
Not available.

Snow Depth

Station Depth Elevation

Earthquake Activity

City Distance Mag. Time & Date
Minimum magnitude displayed is 2.5.

Coastal Water Temperatures

Place Temperature

Stations

Nearby Weather Stations

Station Location Temp. Windchill Dew Point Humidity Wind Precip. Elev Updated Type